Time;durP1;ratioP1;P1;durP2;ratioP2;P2;SDS_P1;SDS_P2;PMS_P1;PMS_P2;Temp;Humidity;BMP_temperature;BMP_pressure;BME280_temperature;BME280_humidity;BME280_pressure;Samples;Min_cycle;Max_cycle;Signal;HPM_P1;HPM_P2
2023/03/12 00:00:34;;;;;;;25.33;15.73;;;0.00;99.90;;;;;;5094888;28;20034;-65
2023/03/12 00:02:59;;;;;;;29.25;16.13;;;0.00;99.90;;;;;;5094976;28;20024;-66
2023/03/12 00:05:25;;;;;;;28.10;16.73;;;0.00;99.90;;;;;;5094845;28;20023;-65
2023/03/12 00:07:51;;;;;;;28.63;16.40;;;0.00;99.90;;;;;;5094804;28;20031;-65
2023/03/12 00:10:18;;;;;;;31.17;16.40;;;0.00;99.90;;;;;;5094756;28;20366;-66
2023/03/12 00:12:44;;;;;;;30.13;16.88;;;0.00;99.90;;;;;;5094720;28;20024;-65
2023/03/12 00:15:09;;;;;;;30.33;17.70;;;0.00;99.90;;;;;;5093717;28;20028;-66
2023/03/12 00:17:35;;;;;;;34.58;18.83;;;0.00;99.90;;;;;;5093549;28;20389;-65
2023/03/12 00:20:01;;;;;;;30.25;17.75;;;0.00;99.90;;;;;;5094582;28;20024;-65
2023/03/12 00:22:27;;;;;;;32.35;17.48;;;0.00;99.90;;;;;;5094472;28;20028;-65
2023/03/12 00:24:53;;;;;;;29.88;17.58;;;0.00;99.90;;;;;;5093638;28;20030;-65
2023/03/12 00:27:19;;;;;;;29.05;17.13;;;0.10;99.90;;;;;;5093294;28;20023;-65
2023/03/12 00:29:45;;;;;;;25.33;16.00;;;0.10;99.90;;;;;;5094591;28;20032;-65
2023/03/12 00:32:10;;;;;;;28.42;17.00;;;0.10;99.90;;;;;;5092993;28;20477;-66
2023/03/12 00:34:36;;;;;;;28.13;16.65;;;0.10;99.90;;;;;;5094366;28;20054;-66
2023/03/12 00:37:01;;;;;;;27.10;17.00;;;0.10;99.90;;;;;;5094341;28;20032;-66
2023/03/12 00:39:27;;;;;;;29.10;16.92;;;0.10;99.90;;;;;;5093932;28;20081;-65
2023/03/12 00:41:52;;;;;;;28.60;16.48;;;0.10;99.90;;;;;;5094077;28;20440;-65
2023/03/12 00:44:18;;;;;;;26.35;15.05;;;0.10;99.90;;;;;;5094147;28;20482;-65
2023/03/12 00:46:44;;;;;;;27.90;15.13;;;0.00;99.90;;;;;;5094315;28;20039;-65
2023/03/12 00:49:10;;;;;;;28.20;15.48;;;0.00;99.90;;;;;;5093997;28;20393;-65
2023/03/12 00:51:36;;;;;;;19.73;13.38;;;0.00;99.90;;;;;;5094212;28;20111;-66
2023/03/12 00:54:02;;;;;;;25.13;14.35;;;-0.10;99.90;;;;;;5094044;28;20059;-65
2023/03/12 00:56:27;;;;;;;23.88;13.40;;;-0.20;99.90;;;;;;5093875;28;20031;-65
2023/03/12 00:58:53;;;;;;;23.98;13.13;;;-0.20;99.90;;;;;;5093901;28;20423;-65
2023/03/12 01:01:18;;;;;;;21.27;13.75;;;-0.30;99.90;;;;;;5094016;28;20382;-65
2023/03/12 01:03:44;;;;;;;19.90;12.30;;;-0.30;99.90;;;;;;5094045;28;20016;-67
2023/03/12 01:06:10;;;;;;;21.58;13.88;;;-0.40;99.90;;;;;;5093789;28;20493;-65
2023/03/12 01:08:36;;;;;;;24.23;13.57;;;-0.40;99.90;;;;;;5093842;28;20504;-65
2023/03/12 01:11:01;;;;;;;18.98;12.63;;;-0.40;99.90;;;;;;5093941;28;20046;-65
2023/03/12 01:13:27;;;;;;;18.25;12.65;;;-0.50;99.90;;;;;;5093595;28;20024;-65
2023/03/12 01:15:53;;;;;;;20.02;12.95;;;-0.50;99.90;;;;;;5093592;28;20027;-65
2023/03/12 01:18:18;;;;;;;26.10;13.73;;;-0.50;99.90;;;;;;5092637;28;20031;-65
2023/03/12 01:20:44;;;;;;;20.85;13.02;;;-0.50;99.90;;;;;;5093736;28;20073;-65
2023/03/12 01:23:09;;;;;;;23.83;13.23;;;-0.40;99.90;;;;;;5093587;28;20439;-65
2023/03/12 01:25:35;;;;;;;22.00;12.98;;;-0.40;99.90;;;;;;5093710;28;20024;-66
2023/03/12 01:28:01;;;;;;;22.17;13.65;;;-0.40;99.90;;;;;;5093454;28;20095;-65
2023/03/12 01:30:27;;;;;;;20.40;13.00;;;-0.40;99.90;;;;;;5093396;28;20067;-65
2023/03/12 01:32:53;;;;;;;20.23;13.20;;;-0.30;99.90;;;;;;5093404;28;20032;-65
2023/03/12 01:35:18;;;;;;;26.10;13.50;;;-0.30;99.90;;;;;;5093404;28;20063;-66
2023/03/12 01:37:44;;;;;;;17.33;12.05;;;-0.30;99.90;;;;;;5093413;28;20099;-65
2023/03/12 01:40:19;;;;;;;23.05;13.55;;;-0.20;99.90;;;;;;5093092;28;20499;-65
2023/03/12 01:42:53;;;;;;;19.08;12.20;;;-0.20;99.90;;;;;;5093466;28;20035;-65
2023/03/12 01:45:59;;;;;;;22.92;12.85;;;-0.20;99.90;;;;;;5093490;28;20381;-65
2023/03/12 01:48:28;;;;;;;20.38;13.40;;;-0.10;99.90;;;;;;5093080;28;20020;-65
2023/03/12 01:50:54;;;;;;;23.73;13.50;;;-0.10;99.90;;;;;;5093207;28;20024;-65
2023/03/12 01:53:20;;;;;;;20.33;13.07;;;0.00;99.90;;;;;;5093189;28;20020;-65
2023/03/12 01:55:46;;;;;;;20.90;13.18;;;0.00;99.90;;;;;;5093212;28;20032;-65
2023/03/12 01:58:11;;;;;;;19.60;12.90;;;0.00;99.90;;;;;;5093231;28;20073;-65
2023/03/12 02:00:37;;;;;;;19.65;12.20;;;0.00;99.90;;;;;;5092918;28;20070;-65
2023/03/12 02:03:07;;;;;;;26.80;12.52;;;0.00;99.90;;;;;;5093241;28;20031;-65
2023/03/12 02:05:42;;;;;;;24.08;12.82;;;0.00;99.90;;;;;;5091956;28;20031;-65
2023/03/12 02:08:09;;;;;;;20.92;11.85;;;0.10;99.90;;;;;;5091993;28;20031;-65
2023/03/12 02:10:35;;;;;;;25.48;13.27;;;0.10;99.90;;;;;;5093356;28;20036;-65
2023/03/12 02:13:00;;;;;;;22.55;12.63;;;0.00;99.90;;;;;;5093353;28;20039;-65
2023/03/12 02:15:26;;;;;;;18.80;12.05;;;0.10;99.90;;;;;;5092984;28;20036;-65
2023/03/12 02:17:53;;;;;;;22.08;12.20;;;0.10;99.90;;;;;;5093213;28;20035;-65
2023/03/12 02:20:26;;;;;;;19.42;11.68;;;0.10;99.90;;;;;;5092874;28;20111;-65
2023/03/12 02:23:01;;;;;;;23.02;12.27;;;0.10;99.90;;;;;;5091771;28;20035;-65
2023/03/12 02:25:33;;;;;;;19.13;11.60;;;0.10;99.90;;;;;;5093087;28;20401;-65
2023/03/12 02:28:02;;;;;;;17.55;10.88;;;0.10;99.90;;;;;;5092831;28;20028;-65
2023/03/12 02:30:29;;;;;;;16.05;10.88;;;0.10;99.90;;;;;;5092936;28;20366;-65
2023/03/12 02:32:57;;;;;;;18.10;11.30;;;0.10;99.90;;;;;;5092810;28;20024;-65
2023/03/12 02:35:22;;;;;;;13.82;10.95;;;0.20;99.90;;;;;;5092835;28;20028;-65
2023/03/12 02:37:49;;;;;;;14.18;9.55;;;0.20;99.90;;;;;;5092724;28;20054;-65
2023/03/12 02:43:06;;;;;;;17.67;10.25;;;0.20;99.90;;;;;;5111238;27;20111;-65
2023/03/12 02:45:33;;;;;;;14.43;10.10;;;0.20;99.90;;;;;;5109870;28;20433;-65
2023/03/12 02:48:00;;;;;;;19.23;10.50;;;0.20;99.90;;;;;;5111023;28;20409;-64
2023/03/12 02:50:25;;;;;;;15.93;10.00;;;0.20;99.90;;;;;;5110983;28;20016;-64
2023/03/12 02:52:51;;;;;;;14.27;9.95;;;0.30;99.90;;;;;;5110926;28;20042;-64
2023/03/12 02:55:16;;;;;;;18.23;9.65;;;0.30;99.90;;;;;;5110903;28;20035;-65
2023/03/12 02:57:42;;;;;;;14.70;9.07;;;0.30;99.90;;;;;;5111150;28;20452;-65
2023/03/12 03:00:13;;;;;;;13.10;9.43;;;0.30;99.90;;;;;;5110969;28;20073;-65
2023/03/12 03:02:39;;;;;;;14.90;9.32;;;0.30;99.90;;;;;;5110759;28;20032;-64
2023/03/12 03:05:05;;;;;;;15.13;9.52;;;0.40;99.90;;;;;;5110949;28;20027;-64
2023/03/12 03:07:31;;;;;;;15.95;9.07;;;0.40;99.90;;;;;;5111016;28;20071;-64
2023/03/12 03:10:02;;;;;;;13.13;8.73;;;0.40;99.90;;;;;;5110620;28;20035;-65
2023/03/12 03:12:29;;;;;;;11.23;8.30;;;0.40;99.90;;;;;;5110593;28;20035;-64
2023/03/12 03:14:55;;;;;;;17.73;9.32;;;0.40;99.90;;;;;;5110846;28;20079;-65
2023/03/12 03:17:23;;;;;;;18.98;9.68;;;0.40;99.90;;;;;;5110751;28;20038;-65
2023/03/12 03:19:49;;;;;;;13.77;8.82;;;0.40;99.90;;;;;;5110471;28;20062;-64
2023/03/12 03:22:15;;;;;;;17.50;9.50;;;0.40;99.90;;;;;;5109181;28;20059;-65
2023/03/12 03:24:40;;;;;;;17.13;8.48;;;0.40;99.90;;;;;;5110377;28;20116;-65
2023/03/12 03:27:06;;;;;;;12.95;7.95;;;0.40;99.90;;;;;;5110664;28;20030;-64
2023/03/12 03:29:31;;;;;;;14.30;8.35;;;0.40;99.90;;;;;;5110304;28;20117;-65
2023/03/12 03:31:57;;;;;;;16.02;8.32;;;0.40;99.90;;;;;;5110166;28;20073;-64
2023/03/12 03:34:22;;;;;;;14.48;7.80;;;0.40;99.90;;;;;;5110350;28;20027;-65
2023/03/12 03:36:48;;;;;;;10.80;7.38;;;0.40;99.90;;;;;;5110139;28;20032;-64
2023/03/12 03:39:13;;;;;;;10.00;7.20;;;0.30;99.90;;;;;;5110224;28;20246;-64
2023/03/12 03:41:39;;;;;;;13.18;8.27;;;0.30;99.90;;;;;;5109574;28;20162;-65
2023/03/12 03:44:06;;;;;;;13.88;8.02;;;0.20;99.90;;;;;;5109858;28;20028;-64
2023/03/12 03:46:34;;;;;;;13.45;8.68;;;0.20;99.90;;;;;;5110079;28;20035;-65
2023/03/12 03:49:00;;;;;;;14.18;8.00;;;0.10;99.90;;;;;;5109879;28;20073;-64
2023/03/12 03:51:25;;;;;;;11.90;7.97;;;0.10;99.90;;;;;;5109840;28;20389;-64
2023/03/12 03:53:51;;;;;;;12.23;7.90;;;0.10;99.90;;;;;;5099494;28;20085;-64
2023/03/12 03:56:16;;;;;;;15.68;8.07;;;0.10;99.90;;;;;;5096397;28;20466;-64
2023/03/12 03:58:42;;;;;;;14.85;8.15;;;0.10;99.90;;;;;;5096349;28;20032;-65
2023/03/12 04:01:07;;;;;;;16.05;8.45;;;0.10;99.90;;;;;;5096099;28;20085;-65
2023/03/12 04:03:33;;;;;;;16.70;7.45;;;0.10;99.90;;;;;;5095908;28;20024;-65
2023/03/12 04:06:01;;;;;;;13.88;7.78;;;0.10;99.90;;;;;;5096129;28;20024;-65
2023/03/12 04:08:27;;;;;;;16.08;7.72;;;0.20;99.90;;;;;;5096116;28;20027;-64
2023/03/12 04:10:53;;;;;;;10.98;7.43;;;0.20;99.90;;;;;;5094909;28;20017;-65
2023/03/12 04:13:19;;;;;;;13.15;7.50;;;0.20;99.90;;;;;;5095843;28;20058;-64
2023/03/12 04:15:51;;;;;;;11.85;7.10;;;0.30;99.90;;;;;;5095523;28;20117;-65
2023/03/12 04:18:17;;;;;;;11.48;7.07;;;0.30;99.90;;;;;;5095834;28;20031;-65
2023/03/12 04:20:43;;;;;;;12.30;7.55;;;0.30;99.90;;;;;;5095712;28;20024;-64
2023/03/12 04:23:09;;;;;;;9.35;6.38;;;0.30;99.90;;;;;;5095667;28;20020;-65
2023/03/12 04:25:34;;;;;;;15.32;6.38;;;0.40;99.90;;;;;;5095683;28;20039;-64
2023/03/12 04:28:00;;;;;;;11.93;6.85;;;0.40;99.90;;;;;;5095578;28;20050;-64
2023/03/12 04:30:26;;;;;;;12.50;6.90;;;0.40;99.90;;;;;;5095365;28;20024;-64
2023/03/12 04:32:52;;;;;;;9.15;6.63;;;0.40;99.90;;;;;;5095458;28;20123;-64
2023/03/12 04:35:18;;;;;;;12.60;6.28;;;0.50;99.90;;;;;;5095564;28;20103;-64
2023/03/12 04:37:44;;;;;;;14.25;6.72;;;0.50;99.90;;;;;;5095424;28;20060;-64
2023/03/12 04:40:11;;;;;;;9.18;5.93;;;0.50;99.90;;;;;;5095515;28;20072;-65
2023/03/12 04:42:37;;;;;;;10.88;5.80;;;0.60;99.90;;;;;;5095098;28;20143;-65
2023/03/12 04:45:05;;;;;;;11.98;6.07;;;0.60;99.90;;;;;;5094069;28;20070;-64
2023/03/12 04:47:31;;;;;;;14.32;6.80;;;0.60;99.90;;;;;;5095380;28;20028;-64
2023/03/12 04:49:57;;;;;;;10.30;5.70;;;0.60;99.90;;;;;;5095352;28;20404;-64
2023/03/12 04:52:23;;;;;;;9.20;5.88;;;0.70;99.90;;;;;;5095310;28;20115;-64
2023/03/12 04:54:49;;;;;;;7.68;5.15;;;0.70;99.90;;;;;;5095257;28;20040;-65
2023/03/12 04:57:15;;;;;;;9.57;5.88;;;0.60;99.90;;;;;;5094938;28;20072;-64
2023/03/12 04:59:41;;;;;;;12.13;5.75;;;0.70;99.90;;;;;;5095174;28;20035;-64
2023/03/12 05:02:06;;;;;;;8.43;5.30;;;0.70;99.90;;;;;;5094901;28;20111;-64
2023/03/12 05:04:32;;;;;;;7.35;5.25;;;0.70;99.90;;;;;;5094089;28;20099;-64
2023/03/12 05:06:57;;;;;;;7.10;5.03;;;0.70;99.90;;;;;;5094978;28;20024;-65
2023/03/12 05:09:23;;;;;;;8.82;6.40;;;0.70;99.90;;;;;;5094978;28;20047;-64
2023/03/12 05:11:48;;;;;;;11.65;5.05;;;0.70;99.90;;;;;;5094961;28;20027;-64
2023/03/12 05:14:14;;;;;;;9.55;5.35;;;0.70;99.90;;;;;;5095170;28;20035;-65
2023/03/12 05:16:39;;;;;;;8.77;5.43;;;0.80;99.90;;;;;;5094718;28;20074;-65
2023/03/12 05:19:05;;;;;;;9.18;5.10;;;0.70;99.90;;;;;;5094742;28;20107;-64
2023/03/12 05:21:31;;;;;;;8.15;5.63;;;0.80;99.90;;;;;;5094526;28;20078;-64
2023/03/12 05:23:58;;;;;;;8.25;5.20;;;0.80;99.90;;;;;;5094693;28;20030;-64
2023/03/12 05:26:27;;;;;;;10.13;5.05;;;0.80;99.90;;;;;;5094486;28;20533;-64
2023/03/12 05:28:53;;;;;;;9.02;4.72;;;0.80;99.90;;;;;;5094426;28;20020;-64
2023/03/12 05:31:20;;;;;;;8.45;5.05;;;0.80;99.90;;;;;;5094336;28;20455;-64
2023/03/12 05:33:46;;;;;;;10.82;5.15;;;0.90;99.90;;;;;;5094548;28;20076;-64
2023/03/12 05:36:12;;;;;;;8.18;4.78;;;0.90;99.90;;;;;;5094324;28;20032;-64
2023/03/12 05:38:38;;;;;;;7.68;4.70;;;1.00;99.90;;;;;;5094078;28;20028;-64
2023/03/12 05:41:05;;;;;;;8.45;5.18;;;1.00;99.90;;;;;;5093950;28;20156;-64
2023/03/12 05:43:31;;;;;;;11.35;4.97;;;1.00;99.90;;;;;;5094086;28;20024;-65
2023/03/12 05:45:59;;;;;;;10.25;5.15;;;1.10;99.90;;;;;;5094175;28;20020;-65
2023/03/12 05:48:25;;;;;;;10.13;4.95;;;1.10;99.90;;;;;;5094062;28;20037;-64
2023/03/12 05:50:51;;;;;;;22.73;5.15;;;1.10;99.90;;;;;;5094126;28;20244;-64
2023/03/12 05:53:16;;;;;;;8.05;4.80;;;1.20;99.90;;;;;;5093986;28;20020;-64
2023/03/12 05:55:42;;;;;;;10.43;4.30;;;1.20;99.90;;;;;;5094014;28;20382;-64
2023/03/12 05:58:08;;;;;;;7.97;4.30;;;1.30;99.90;;;;;;5094165;28;20028;-64
2023/03/12 06:00:36;;;;;;;9.73;4.85;;;1.30;99.90;;;;;;5093731;28;20478;-64
2023/03/12 06:03:04;;;;;;;10.38;4.40;;;1.30;99.90;;;;;;5093662;28;20024;-64
2023/03/12 06:05:30;;;;;;;15.23;4.40;;;1.40;99.90;;;;;;5093929;28;20108;-65
2023/03/12 06:07:56;;;;;;;12.07;4.43;;;1.50;99.90;;;;;;5093876;28;20024;-65
2023/03/12 06:10:22;;;;;;;12.32;4.55;;;1.50;99.90;;;;;;5093887;28;20038;-64
2023/03/12 06:12:47;;;;;;;10.15;4.13;;;1.60;99.90;;;;;;5093802;28;20550;-65
2023/03/12 06:15:12;;;;;;;9.85;3.72;;;1.60;99.90;;;;;;5093805;28;20053;-65
2023/03/12 06:17:38;;;;;;;14.35;4.25;;;1.70;99.90;;;;;;5073156;28;20028;-64
2023/03/12 06:20:05;;;;;;;8.68;3.60;;;1.80;99.90;;;;;;5073460;28;20099;-64
2023/03/12 06:22:30;;;;;;;8.82;4.32;;;1.90;99.90;;;;;;5073240;28;20039;-64
2023/03/12 06:24:56;;;;;;;7.00;3.13;;;1.90;99.90;;;;;;5073259;28;20432;-65
2023/03/12 06:27:21;;;;;;;10.85;3.50;;;2.00;99.90;;;;;;5073447;28;20028;-65
2023/03/12 06:29:47;;;;;;;7.10;3.28;;;2.20;99.90;;;;;;5073282;28;20035;-65
2023/03/12 06:32:13;;;;;;;9.85;3.33;;;2.30;99.90;;;;;;5073134;28;20039;-64
2023/03/12 06:34:38;;;;;;;6.80;3.45;;;2.40;99.90;;;;;;5073210;28;20041;-65
2023/03/12 06:37:04;;;;;;;6.88;3.15;;;2.60;99.90;;;;;;5073403;28;20032;-65
2023/03/12 06:39:30;;;;;;;9.32;3.00;;;2.70;99.90;;;;;;5073124;28;20027;-65
2023/03/12 06:41:55;;;;;;;10.95;3.25;;;2.80;99.90;;;;;;5072846;28;20050;-65
2023/03/12 06:44:21;;;;;;;7.07;3.13;;;2.90;99.90;;;;;;5073131;28;20032;-65
2023/03/12 06:46:47;;;;;;;7.10;3.03;;;3.00;99.90;;;;;;5073080;28;20097;-65
2023/03/12 06:49:13;;;;;;;6.38;2.90;;;3.00;99.90;;;;;;5073031;28;20052;-65
2023/03/12 06:51:38;;;;;;;6.93;3.03;;;3.00;99.90;;;;;;5073259;28;20497;-65
2023/03/12 06:54:04;;;;;;;10.10;3.20;;;3.10;99.90;;;;;;5072977;28;20163;-65
2023/03/12 06:56:30;;;;;;;5.68;2.85;;;3.00;99.90;;;;;;5072978;28;20098;-65
2023/03/12 06:58:55;;;;;;;8.73;2.92;;;3.00;99.90;;;;;;5072964;28;20038;-65
2023/03/12 07:01:21;;;;;;;9.65;3.50;;;3.00;99.90;;;;;;5073093;28;20103;-64
2023/03/12 07:03:47;;;;;;;9.48;3.33;;;3.00;99.90;;;;;;5073111;28;20090;-64
2023/03/12 07:06:15;;;;;;;4.93;2.80;;;3.00;99.90;;;;;;5072845;28;20074;-65
2023/03/12 07:08:41;;;;;;;9.02;3.15;;;3.10;99.90;;;;;;5072986;28;20047;-64
2023/03/12 07:11:07;;;;;;;8.70;3.15;;;3.20;99.90;;;;;;5073102;28;20025;-65
2023/03/12 07:13:33;;;;;;;6.07;3.10;;;3.30;99.90;;;;;;5071565;28;20029;-65
2023/03/12 07:15:59;;;;;;;9.88;3.35;;;3.40;99.90;;;;;;5072740;28;20054;-64
2023/03/12 07:18:25;;;;;;;8.65;3.00;;;3.50;99.90;;;;;;5072749;28;20028;-64
2023/03/12 07:20:51;;;;;;;10.57;3.55;;;3.50;99.90;;;;;;5072790;28;20045;-65
2023/03/12 07:23:16;;;;;;;11.52;3.10;;;3.50;99.90;;;;;;5072400;28;20021;-65
2023/03/12 07:25:42;;;;;;;6.82;3.10;;;3.50;99.90;;;;;;5072797;28;20031;-64
2023/03/12 07:28:08;;;;;;;9.38;3.42;;;3.50;99.90;;;;;;5073812;28;20030;-65
2023/03/12 07:30:35;;;;;;;6.75;2.88;;;3.50;99.90;;;;;;5076542;28;20035;-65
2023/03/12 07:33:03;;;;;;;4.68;2.92;;;3.60;99.90;;;;;;5076569;28;20546;-64
2023/03/12 07:35:30;;;;;;;7.03;2.75;;;3.60;99.90;;;;;;5076267;28;20032;-65
2023/03/12 07:37:56;;;;;;;7.95;3.10;;;3.60;99.90;;;;;;5076248;28;20031;-64
2023/03/12 07:40:22;;;;;;;8.73;3.28;;;3.60;99.90;;;;;;5076310;28;20025;-65
2023/03/12 07:42:48;;;;;;;7.80;3.50;;;3.60;99.90;;;;;;5075949;28;20518;-65
2023/03/12 07:45:14;;;;;;;8.00;2.78;;;3.70;99.90;;;;;;5076408;28;20394;-65
2023/03/12 07:47:40;;;;;;;6.32;3.00;;;3.70;99.90;;;;;;5076365;28;20028;-64
2023/03/12 07:50:05;;;;;;;7.68;2.90;;;3.80;99.90;;;;;;5076343;28;20031;-66
2023/03/12 07:52:31;;;;;;;7.18;3.58;;;3.80;99.90;;;;;;5076135;28;20071;-65
2023/03/12 07:54:57;;;;;;;4.97;2.92;;;3.80;99.90;;;;;;5076086;28;20075;-65
2023/03/12 07:57:23;;;;;;;11.50;3.38;;;4.00;99.90;;;;;;5075980;28;20021;-65
2023/03/12 07:59:48;;;;;;;6.38;3.55;;;4.20;99.90;;;;;;5075813;28;20383;-65
2023/03/12 08:02:14;;;;;;;11.70;3.30;;;4.20;99.90;;;;;;5075814;28;20371;-65
2023/03/12 08:04:39;;;;;;;10.70;3.53;;;4.20;99.90;;;;;;5075707;28;20028;-65
2023/03/12 08:07:05;;;;;;;10.32;3.70;;;4.10;99.90;;;;;;5075718;28;20477;-65
2023/03/12 08:09:32;;;;;;;10.85;4.53;;;4.00;99.90;;;;;;5075590;28;20051;-65
2023/03/12 08:11:57;;;;;;;11.73;4.45;;;3.80;99.90;;;;;;5075707;28;20024;-65
2023/03/12 08:14:23;;;;;;;8.50;3.85;;;3.70;99.90;;;;;;5075821;28;20035;-65
2023/03/12 08:16:48;;;;;;;11.60;4.28;;;3.60;99.90;;;;;;5075640;28;20032;-65
2023/03/12 08:19:14;;;;;;;9.30;4.15;;;3.50;99.90;;;;;;5075611;28;20043;-65
2023/03/12 08:21:40;;;;;;;12.30;4.07;;;3.40;99.90;;;;;;5075478;28;20415;-65
2023/03/12 08:24:05;;;;;;;12.07;4.85;;;3.40;99.90;;;;;;5075544;28;20409;-65
2023/03/12 08:26:31;;;;;;;11.35;4.30;;;3.40;99.90;;;;;;5075393;28;20052;-65
2023/03/12 08:28:59;;;;;;;10.45;4.65;;;3.40;99.90;;;;;;5075509;28;20032;-65
2023/03/12 08:31:25;;;;;;;8.77;4.28;;;3.40;99.90;;;;;;5073996;28;20060;-65
2023/03/12 08:33:50;;;;;;;13.88;4.82;;;3.40;99.90;;;;;;5075448;28;20028;-65
2023/03/12 08:36:16;;;;;;;9.35;5.22;;;3.30;99.90;;;;;;5075200;28;20039;-65
2023/03/12 08:38:41;;;;;;;12.40;6.65;;;3.30;99.90;;;;;;5075079;28;20398;-65
2023/03/12 08:41:07;;;;;;;9.88;5.32;;;3.20;99.90;;;;;;5074915;28;20045;-65
2023/03/12 08:43:33;;;;;;;14.55;5.85;;;3.10;99.90;;;;;;5075236;28;20400;-65
2023/03/12 08:46:01;;;;;;;12.68;5.68;;;3.20;99.90;;;;;;5074849;28;20020;-65
2023/03/12 08:48:28;;;;;;;12.40;6.03;;;3.10;99.90;;;;;;5075157;28;20117;-65
2023/03/12 08:50:55;;;;;;;14.75;6.70;;;3.10;99.90;;;;;;5075153;28;20027;-65
2023/03/12 08:53:22;;;;;;;11.27;5.95;;;3.20;99.90;;;;;;5075056;28;20017;-65
2023/03/12 08:55:48;;;;;;;10.75;6.32;;;3.20;99.90;;;;;;5075029;28;20047;-65
2023/03/12 08:58:13;;;;;;;11.13;6.18;;;3.30;99.90;;;;;;5074706;28;20017;-65
2023/03/12 09:00:39;;;;;;;11.75;5.65;;;3.30;99.90;;;;;;5074841;28;20024;-65
2023/03/12 09:03:04;;;;;;;11.75;5.75;;;3.30;99.90;;;;;;5074671;28;20489;-65
2023/03/12 09:05:31;;;;;;;10.55;6.40;;;3.40;99.90;;;;;;5074715;28;20474;-65
2023/03/12 09:07:57;;;;;;;12.10;5.90;;;3.40;99.90;;;;;;5074525;28;20025;-65
2023/03/12 09:10:24;;;;;;;13.40;5.30;;;3.40;99.90;;;;;;5074282;28;20129;-65
2023/03/12 09:12:49;;;;;;;10.63;5.95;;;3.40;99.90;;;;;;5074496;28;20043;-65
2023/03/12 09:15:15;;;;;;;11.07;6.25;;;3.50;99.90;;;;;;5073631;28;20044;-65
2023/03/12 09:17:41;;;;;;;10.38;5.85;;;3.60;99.90;;;;;;5074484;28;20394;-65
2023/03/12 09:20:12;;;;;;;10.57;5.60;;;3.60;99.90;;;;;;5074232;28;20391;-65
2023/03/12 09:22:38;;;;;;;13.65;6.30;;;3.70;99.90;;;;;;5073218;28;20036;-66
2023/03/12 09:25:06;;;;;;;13.43;6.55;;;3.80;99.90;;;;;;5074430;28;20102;-66
2023/03/12 09:27:42;;;;;;;11.13;6.45;;;3.90;99.90;;;;;;5073928;28;20501;-65
2023/03/12 09:30:11;;;;;;;13.65;6.97;;;4.00;99.90;;;;;;5074325;28;20470;-65
2023/03/12 09:32:37;;;;;;;10.77;6.32;;;4.00;99.90;;;;;;5074054;28;20431;-65
2023/03/12 09:35:10;;;;;;;12.13;6.88;;;4.10;99.90;;;;;;5074204;28;20479;-67
2023/03/12 09:37:35;;;;;;;13.65;7.15;;;4.20;99.90;;;;;;5073781;28;20128;-65
2023/03/12 09:40:06;;;;;;;11.40;6.60;;;4.30;99.90;;;;;;5073741;28;20064;-65
2023/03/12 09:42:51;;;;;;;10.13;6.55;;;4.30;99.90;;;;;;5073287;28;20131;-63
2023/03/12 09:45:24;;;;;;;10.90;6.80;;;4.40;99.90;;;;;;5073940;28;20031;-64
2023/03/12 09:47:53;;;;;;;12.20;6.80;;;4.50;99.90;;;;;;5074034;28;20028;-63
2023/03/12 09:50:34;;;;;;;13.45;6.18;;;4.50;99.90;;;;;;5073692;28;20060;-63
2023/03/12 09:53:03;;;;;;;12.48;6.05;;;4.50;99.90;;;;;;5073889;28;20032;-63
2023/03/12 09:55:37;;;;;;;11.43;6.88;;;4.70;99.90;;;;;;5073666;28;20048;-63
2023/03/12 09:58:03;;;;;;;12.20;7.20;;;4.70;99.90;;;;;;5073815;28;20387;-63
2023/03/12 10:00:33;;;;;;;14.93;7.28;;;4.80;99.90;;;;;;5073772;28;20028;-63
2023/03/12 10:03:38;;;;;;;11.13;6.70;;;4.90;99.90;;;;;;5073400;28;20021;-63
2023/03/12 10:06:13;;;;;;;10.00;6.72;;;5.00;99.90;;;;;;5073333;28;20029;-63
2023/03/12 10:08:52;;;;;;;10.15;6.65;;;5.00;99.90;;;;;;5073802;28;20029;-63
2023/03/12 10:11:57;;;;;;;12.82;6.88;;;5.10;99.90;;;;;;5073679;28;20478;-63
2023/03/12 10:14:36;;;;;;;11.70;6.72;;;5.10;99.90;;;;;;5073371;28;20036;-63
2023/03/12 10:17:42;;;;;;;15.13;8.02;;;5.10;99.90;;;;;;5073354;28;20558;-63
2023/03/12 10:20:49;;;;;;;15.20;6.90;;;5.10;99.90;;;;;;5073193;28;20085;-63
2023/03/12 10:23:53;;;;;;;10.70;6.72;;;5.10;99.90;;;;;;5072993;28;20032;-63
2023/03/12 10:26:24;;;;;;;11.90;6.82;;;5.10;99.90;;;;;;5073377;28;20021;-63
2023/03/12 10:29:02;;;;;;;12.15;6.43;;;5.10;99.90;;;;;;5073065;28;20032;-63
2023/03/12 10:31:35;;;;;;;10.13;6.88;;;5.10;99.90;;;;;;5072974;28;20021;-63
2023/03/12 10:34:07;;;;;;;11.75;6.63;;;5.00;99.90;;;;;;5073218;28;20025;-63
2023/03/12 10:36:38;;;;;;;13.63;7.40;;;5.00;99.90;;;;;;5073051;28;20032;-63
2023/03/12 10:39:12;;;;;;;11.25;7.05;;;5.00;99.90;;;;;;5073298;28;20107;-63
2023/03/12 10:41:37;;;;;;;12.80;7.45;;;5.10;99.90;;;;;;5072568;28;20044;-63
2023/03/12 10:44:07;;;;;;;10.10;7.40;;;5.10;99.90;;;;;;5073111;28;20031;-63
2023/03/12 10:49:24;;;;;;;13.25;9.02;;;5.20;99.90;;;;;;5070625;28;20418;-63
2023/03/12 10:54:36;;;;;;;12.70;8.38;;;5.20;99.90;;;;;;5131776;27;20375;-63
2023/03/12 10:57:02;;;;;;;9.38;8.35;;;5.30;99.90;;;;;;5131598;28;20020;-63
2023/03/12 10:59:33;;;;;;;15.07;7.95;;;5.30;99.90;;;;;;5131567;28;20019;-63
2023/03/12 11:02:00;;;;;;;15.98;8.45;;;5.50;99.90;;;;;;5131409;28;20027;-63
2023/03/12 11:04:29;;;;;;;10.85;7.78;;;5.60;99.90;;;;;;5131452;28;20039;-63
2023/03/12 11:12:57;;;;;;;12.85;7.90;;;5.60;99.90;;;;;;5111145;27;20296;-64
2023/03/12 11:15:27;;;;;;;14.65;8.18;;;5.70;99.90;;;;;;5111275;28;20032;-64
2023/03/12 11:18:33;;;;;;;15.90;9.88;;;5.60;99.90;;;;;;5111186;28;20024;-64
2023/03/12 11:21:16;;;;;;;13.80;9.73;;;5.70;99.90;;;;;;5111026;28;20039;-63
2023/03/12 11:23:47;;;;;;;12.30;8.73;;;5.70;99.90;;;;;;5109985;28;20028;-63
2023/03/12 11:26:18;;;;;;;11.48;9.32;;;5.70;99.90;;;;;;5110931;28;20036;-64
2023/03/12 11:28:50;;;;;;;10.70;8.80;;;5.70;99.90;;;;;;5110732;28;20062;-63
2023/03/12 11:31:30;;;;;;;10.30;7.97;;;5.80;99.90;;;;;;5110880;28;20031;-63
2023/03/12 11:34:03;;;;;;;10.93;8.13;;;5.90;99.90;;;;;;5110679;28;20031;-63
2023/03/12 11:36:54;;;;;;;9.02;8.05;;;5.90;99.90;;;;;;5110789;28;20470;-63
2023/03/12 11:45:39;;;;;;;10.02;8.20;;;6.10;99.90;;;;;;5111190;27;20376;-63
2023/03/12 11:48:14;;;;;;;12.52;9.25;;;;;;;;;;5111148;28;20035;-63
2023/03/12 11:50:55;;;;;;;13.63;8.93;;;6.30;99.90;;;;;;5111157;28;20496;-63
2023/03/12 11:54:01;;;;;;;12.57;9.32;;;6.40;99.90;;;;;;5110029;28;20028;-63
2023/03/12 11:56:31;;;;;;;13.82;9.27;;;6.40;99.90;;;;;;5110759;28;20027;-63
2023/03/12 11:59:25;;;;;;;15.82;10.95;;;6.40;99.90;;;;;;5110722;28;20071;-63
2023/03/12 12:02:20;;;;;;;17.52;12.15;;;6.60;99.90;;;;;;5110830;28;20034;-63
2023/03/12 12:05:19;;;;;;;17.25;11.85;;;6.70;99.90;;;;;;5110666;28;20062;-63
2023/03/12 12:08:14;;;;;;;16.92;12.25;;;6.80;99.90;;;;;;5110454;28;20489;-63
2023/03/12 12:11:04;;;;;;;17.48;11.40;;;6.90;99.90;;;;;;5110516;28;20020;-63
2023/03/12 12:13:55;;;;;;;18.13;11.80;;;7.00;99.90;;;;;;5110561;28;20038;-63
2023/03/12 12:16:44;;;;;;;16.90;12.23;;;7.00;99.90;;;;;;5110441;28;20103;-63
2023/03/12 12:22:36;;;;;;;18.85;11.88;;;7.20;99.90;;;;;;5111092;27;20113;-63
2023/03/12 12:25:22;;;;;;;19.63;13.27;;;7.30;99.90;;;;;;5110880;28;20044;-63
2023/03/12 12:28:14;;;;;;;18.00;12.70;;;7.20;99.90;;;;;;5111002;28;20035;-63
2023/03/12 12:31:13;;;;;;;20.60;13.05;;;7.20;99.90;;;;;;5111029;28;20509;-63
2023/03/12 12:34:07;;;;;;;17.48;13.02;;;7.20;99.90;;;;;;5110798;28;20020;-63
2023/03/12 12:36:34;;;;;;;20.00;13.38;;;7.20;99.90;;;;;;5110933;28;20063;-63
2023/03/12 12:39:28;;;;;;;20.15;13.88;;;7.10;99.90;;;;;;5109647;28;20024;-63
2023/03/12 12:41:58;;;;;;;20.80;14.32;;;7.10;99.90;;;;;;5110723;28;20020;-63
2023/03/12 12:44:34;;;;;;;23.17;14.88;;;7.10;99.90;;;;;;5110775;28;20027;-63
2023/03/12 12:47:04;;;;;;;21.73;13.93;;;7.10;99.90;;;;;;5110886;28;20055;-63
2023/03/12 12:52:13;;;;;;;28.90;16.05;;;7.20;99.90;;;;;;5111103;27;20400;-63
2023/03/12 12:55:09;;;;;;;23.95;15.10;;;7.30;99.90;;;;;;5111214;28;20497;-64
2023/03/12 12:57:43;;;;;;;24.05;15.70;;;7.40;99.90;;;;;;5111248;27;20023;-64
2023/03/12 13:00:35;;;;;;;24.27;15.65;;;7.50;99.90;;;;;;5110792;27;20020;-64
2023/03/12 13:03:01;;;;;;;25.85;15.85;;;7.50;99.90;;;;;;5110924;28;20385;-64
2023/03/12 13:08:35;;;;;;;28.95;17.33;;;7.70;99.90;;;;;;5111205;27;20873;-63
2023/03/12 13:11:21;;;;;;;31.00;16.70;;;7.70;99.90;;;;;;5111057;28;20062;-63
2023/03/12 13:14:11;;;;;;;32.15;18.42;;;7.80;99.90;;;;;;5110788;28;20111;-64
2023/03/12 13:16:41;;;;;;;32.47;19.45;;;7.80;99.90;;;;;;5110984;28;20032;-64
2023/03/12 13:22:13;;;;;;;34.28;18.60;;;7.90;99.90;;;;;;5070546;28;20383;-63
2023/03/12 13:25:19;;;;;;;37.60;19.75;;;8.00;99.90;;;;;;5070413;28;20072;-63
2023/03/12 13:27:45;;;;;;;39.75;20.77;;;8.00;99.90;;;;;;5070328;28;20029;-63
2023/03/12 13:30:37;;;;;;;38.17;21.08;;;8.10;99.90;;;;;;5070371;28;20036;-64